createdAt,value
2023-05-18T00:02:59.036Z,15.80
2023-05-18T00:09:01.521Z,15.80
2023-05-18T00:15:04.462Z,15.70
2023-05-18T00:21:06.810Z,15.70
2023-05-18T00:27:09.335Z,15.70
2023-05-18T00:33:11.519Z,15.70
2023-05-18T00:39:13.997Z,15.60
2023-05-18T00:45:16.572Z,15.50
2023-05-18T00:51:20.121Z,15.40
2023-05-18T00:57:22.325Z,15.40
2023-05-18T01:03:26.583Z,15.30
2023-05-18T01:09:28.980Z,15.30
2023-05-18T01:15:42.367Z,15.20
2023-05-18T01:21:58.776Z,15.20
2023-05-18T01:28:06.878Z,15.10
2023-05-18T01:34:09.206Z,15.10
2023-05-18T01:40:11.545Z,15.00
2023-05-18T01:46:22.383Z,15.00
2023-05-18T01:52:57.379Z,14.90
2023-05-18T01:59:00.836Z,14.90
2023-05-18T02:05:03.316Z,14.80
2023-05-18T02:11:05.870Z,14.80
2023-05-18T02:17:08.932Z,14.80
2023-05-18T02:23:11.421Z,14.80
2023-05-18T02:29:14.926Z,14.80
2023-05-18T02:35:18.610Z,14.70
2023-05-18T02:41:21.401Z,14.80
2023-05-18T02:47:23.727Z,14.80
2023-05-18T02:53:26.905Z,14.80
2023-05-18T02:59:34.998Z,14.80
2023-05-18T03:05:37.812Z,14.80
2023-05-18T03:11:40.303Z,14.90
2023-05-18T03:17:43.423Z,15.00
2023-05-18T03:23:46.450Z,15.00
2023-05-18T03:29:49.030Z,14.90
2023-05-18T03:35:52.628Z,15.00
2023-05-18T03:41:55.478Z,15.00
2023-05-18T03:47:58.241Z,15.10
2023-05-18T03:54:00.982Z,15.20
2023-05-18T04:00:13.537Z,15.30
2023-05-18T04:06:22.961Z,15.40
2023-05-18T04:12:26.076Z,15.50
2023-05-18T04:18:30.620Z,15.60
2023-05-18T04:24:34.872Z,15.60
2023-05-18T04:30:38.140Z,15.70
2023-05-18T04:36:43.108Z,15.80
2023-05-18T04:42:48.659Z,15.80
2023-05-18T04:48:58.943Z,15.80
2023-05-18T04:55:02.651Z,16.10
2023-05-18T05:01:07.292Z,16.20
2023-05-18T05:07:09.748Z,16.50
2023-05-18T05:13:12.008Z,16.70
2023-05-18T05:19:16.529Z,16.70
2023-05-18T05:25:19.225Z,16.80
2023-05-18T05:31:21.690Z,17.20
2023-05-18T05:37:24.042Z,17.50
2023-05-18T05:43:26.769Z,17.60
2023-05-18T05:49:29.127Z,18.00
2023-05-18T05:55:31.768Z,19.20
2023-05-18T06:01:35.129Z,19.60
2023-05-18T06:07:37.577Z,19.80
2023-05-18T06:13:40.310Z,20.70
2023-05-18T06:19:43.249Z,20.70
2023-05-18T06:25:45.971Z,20.80
2023-05-18T06:31:58.804Z,20.30
2023-05-18T06:38:11.595Z,19.70
2023-05-18T06:44:15.043Z,19.80
2023-05-18T06:50:36.336Z,19.40
2023-05-18T06:56:39.360Z,19.40
2023-05-18T07:02:43.639Z,19.30
2023-05-18T07:08:47.575Z,19.20
2023-05-18T07:14:52.756Z,20.60
2023-05-18T07:20:55.273Z,21.10
2023-05-18T07:26:58.859Z,21.30
2023-05-18T07:33:03.188Z,22.10
2023-05-18T07:39:05.968Z,23.80
2023-05-18T07:45:08.621Z,24.00
2023-05-18T07:51:11.576Z,24.40
2023-05-18T07:57:14.335Z,24.00
2023-05-18T08:03:16.663Z,23.80
2023-05-18T08:09:19.142Z,23.80
2023-05-18T08:15:22.079Z,23.80
2023-05-18T08:21:24.615Z,23.10
2023-05-18T08:27:26.996Z,22.80
2023-05-18T08:33:29.863Z,22.60
2023-05-18T08:39:32.689Z,23.00
2023-05-18T08:46:15.168Z,23.50
2023-05-18T08:52:21.418Z,24.60
2023-05-18T08:58:32.780Z,25.30
2023-05-18T09:04:36.328Z,25.60
2023-05-18T09:10:39.681Z,26.20
2023-05-18T09:16:41.997Z,26.10
2023-05-18T09:22:45.175Z,26.00
2023-05-18T09:28:52.609Z,27.30
2023-05-18T09:34:55.837Z,27.00
2023-05-18T09:40:58.292Z,25.90
2023-05-18T09:47:01.071Z,24.70
2023-05-18T09:53:07.076Z,25.00
2023-05-18T09:59:11.364Z,25.50
2023-05-18T10:05:23.594Z,25.60
2023-05-18T10:11:27.831Z,24.70
2023-05-18T10:17:33.715Z,24.70
2023-05-18T10:23:37.422Z,25.00
2023-05-18T10:29:40.390Z,25.30
2023-05-18T10:35:45.589Z,26.20
2023-05-18T10:41:49.401Z,26.30
2023-05-18T10:47:55.015Z,25.10
2023-05-18T10:54:07.708Z,28.00
2023-05-18T11:00:10.939Z,26.00
2023-05-18T11:06:15.267Z,26.60
2023-05-18T11:12:21.210Z,26.20
2023-05-18T11:18:50.817Z,24.90
2023-05-18T11:24:53.329Z,24.50
2023-05-18T11:30:55.533Z,24.90
2023-05-18T11:36:58.165Z,25.80
2023-05-18T11:43:00.525Z,26.10
2023-05-18T11:49:08.406Z,25.80
2023-05-18T11:55:15.657Z,25.50
2023-05-18T12:01:18.396Z,25.90
2023-05-18T12:07:22.079Z,26.40
2023-05-18T12:13:24.594Z,25.70
2023-05-18T12:19:26.821Z,25.50
2023-05-18T12:25:29.634Z,25.50
2023-05-18T12:31:32.202Z,27.50
2023-05-18T12:37:44.782Z,27.40
2023-05-18T12:43:47.757Z,26.80
2023-05-18T12:49:50.588Z,26.80
2023-05-18T12:55:59.994Z,25.50
2023-05-18T13:02:02.565Z,24.90
2023-05-18T13:08:05.185Z,24.70
2023-05-18T13:14:09.326Z,24.90
2023-05-18T13:20:15.829Z,25.70
2023-05-18T13:26:19.462Z,25.40
2023-05-18T13:32:21.794Z,24.80
2023-05-18T13:38:23.891Z,24.60
2023-05-18T13:44:26.020Z,25.10
2023-05-18T13:50:28.439Z,25.60
2023-05-18T13:56:30.784Z,25.10
2023-05-18T14:02:33.178Z,24.50
2023-05-18T14:08:35.469Z,23.80
2023-05-18T14:14:38.010Z,23.50
2023-05-18T14:20:40.375Z,23.40
2023-05-18T14:26:42.852Z,23.80
2023-05-18T14:32:45.029Z,24.00
2023-05-18T14:38:47.458Z,23.90
2023-05-18T14:44:49.643Z,24.00
2023-05-18T14:50:51.939Z,24.00
2023-05-18T14:56:54.250Z,24.00
2023-05-18T15:02:57.027Z,24.00
2023-05-18T15:08:59.600Z,24.30
2023-05-18T15:15:01.775Z,24.30
2023-05-18T15:21:03.896Z,24.00
2023-05-18T15:27:06.546Z,23.70
2023-05-18T15:33:08.744Z,23.50
2023-05-18T15:39:11.827Z,23.20
2023-05-18T15:45:14.124Z,23.10
2023-05-18T15:51:16.420Z,22.90
2023-05-18T15:57:18.621Z,22.90
2023-05-18T16:03:21.352Z,22.60
2023-05-18T16:09:23.841Z,22.40
2023-05-18T16:15:26.056Z,22.20
2023-05-18T16:21:28.316Z,22.20
2023-05-18T16:27:31.069Z,22.10
2023-05-18T16:33:33.384Z,22.00
2023-05-18T16:39:36.078Z,21.90
2023-05-18T16:45:38.247Z,21.90
2023-05-18T16:51:40.515Z,21.80
2023-05-18T16:57:43.747Z,21.60
2023-05-18T17:03:46.136Z,21.40
2023-05-18T17:09:48.684Z,21.30
2023-05-18T17:15:51.052Z,21.20
2023-05-18T17:21:53.098Z,21.10
2023-05-18T17:27:55.315Z,21.10
2023-05-18T17:33:57.935Z,20.90
2023-05-18T17:40:00.525Z,20.50
2023-05-18T17:46:02.832Z,20.30
2023-05-18T17:52:05.320Z,20.10
2023-05-18T17:58:07.631Z,20.10
2023-05-18T18:04:10.220Z,20.00
2023-05-18T18:10:12.710Z,20.00
2023-05-18T18:16:15.386Z,19.90
2023-05-18T18:22:17.510Z,19.70
2023-05-18T18:28:20.170Z,19.40
2023-05-18T18:34:22.448Z,19.20
2023-05-18T18:40:24.851Z,19.00
2023-05-18T18:46:27.232Z,18.70
2023-05-18T18:52:29.589Z,18.60
2023-05-18T18:58:31.725Z,18.40
2023-05-18T19:04:33.938Z,18.30
2023-05-18T19:10:36.283Z,18.20
2023-05-18T19:16:39.149Z,18.00
2023-05-18T19:22:41.700Z,17.90
2023-05-18T19:28:44.052Z,17.80
2023-05-18T19:34:46.360Z,17.60
2023-05-18T19:40:48.774Z,17.50
2023-05-18T19:46:51.207Z,17.60
2023-05-18T19:52:53.530Z,17.60
2023-05-18T19:58:55.816Z,17.60
2023-05-18T20:04:58.081Z,17.60
2023-05-18T20:11:00.401Z,17.60
2023-05-18T20:17:03.600Z,17.70
2023-05-18T20:23:11.042Z,17.70
2023-05-18T20:29:13.451Z,17.60
2023-05-18T20:35:16.252Z,17.60
2023-05-18T20:41:20.204Z,17.60
2023-05-18T20:47:22.472Z,17.50
2023-05-18T20:53:24.997Z,17.50
2023-05-18T20:59:27.992Z,17.50
2023-05-18T21:05:33.855Z,17.40
2023-05-18T21:11:36.211Z,17.40
2023-05-18T21:17:38.407Z,17.40
2023-05-18T21:23:41.402Z,17.40
2023-05-18T21:29:43.805Z,17.50
2023-05-18T21:35:46.103Z,17.40
2023-05-18T21:41:48.431Z,17.30
2023-05-18T21:47:51.104Z,17.40
2023-05-18T21:53:53.270Z,17.30
2023-05-18T21:59:55.708Z,17.30
2023-05-18T22:05:58.551Z,17.20
2023-05-18T22:12:01.658Z,17.10
2023-05-18T22:18:04.627Z,17.00
2023-05-18T22:24:07.254Z,16.90
2023-05-18T22:30:09.969Z,16.90
2023-05-18T22:36:12.440Z,16.90
2023-05-18T22:42:15.264Z,16.90
2023-05-18T22:48:17.852Z,17.00
2023-05-18T22:54:20.136Z,16.90
2023-05-18T23:00:22.935Z,17.00
2023-05-18T23:06:25.341Z,17.10
2023-05-18T23:12:30.675Z,17.10
2023-05-18T23:18:32.922Z,17.10
2023-05-18T23:24:35.154Z,17.00
2023-05-18T23:30:37.694Z,17.00
2023-05-18T23:36:43.058Z,17.00
2023-05-18T23:42:45.750Z,17.00
2023-05-18T23:48:48.551Z,17.00
2023-05-18T23:54:55.868Z,17.10
